| time (UTC) | temp F | wind direction | speed knots | gust knots | rain 1hr in | rain 24hr in | rain mn in | humidity % | barometer mb |
| 20260502200016 | 55 | 0.0 | 0.0 | 0.00 | 0.00 | 0.00 | 62 | 1022.7 | |
| 20260502195017 | 56 | 0.0 | 0.0 | 0.00 | 0.00 | 0.00 | 60 | 1022.8 | |
| 20260502194018 | 56 | 0.0 | 0.0 | 0.00 | 0.00 | 0.00 | 58 | 1022.9 | |
| 20260502193020 | 56 | 0.0 | 0.0 | 0.00 | 0.00 | 0.00 | 56 | 1022.9 | |
| 20260502192021 | 57 | 0.0 | 0.0 | 0.00 | 0.00 | 0.00 | 52 | 1023.0 | |
| 20260502191023 | 58 | 0.0 | 0.0 | 0.00 | 0.00 | 0.00 | 48 | 1023.0 | |
| 20260502190024 | 59 | 0.0 | 0.0 | 0.00 | 0.00 | 0.00 | 46 | 1023.0 | |
| 20260502185025 | 60 | 0.0 | 0.0 | 0.00 | 0.00 | 0.00 | 44 | 1023.1 | |
| 20260502184027 | 61 | 0.0 | 0.0 | 0.00 | 0.00 | 0.00 | 42 | 1023.0 | |
| 20260502183028 | 61 | 0.0 | 0.0 | 0.00 | 0.00 | 0.00 | 41 | 1023.0 | |
| 20260502182029 | 62 | 0.0 | 0.0 | 0.00 | 0.00 | 0.00 | 39 | 1022.9 | |
| 20260502181031 | 62 | 0.0 | 0.0 | 0.00 | 0.00 | 0.00 | 38 | 1022.9 | |
| 20260502164043 | 65 | 0.0 | 0.0 | 0.00 | 0.00 | 0.00 | 32 | 1023.2 | |
| 20260502163045 | 66 | 0.0 | 0.0 | 0.00 | 0.00 | 0.00 | 32 | 1023.2 | |
| 20260502162046 | 66 | 0.0 | 0.0 | 0.00 | 0.00 | 0.00 | 31 | 1023.4 | |
| 20260502161048 | 67 | 0.0 | 0.0 | 0.00 | 0.00 | 0.00 | 31 | 1023.4 | |
| 20260502152055 | 69 | 0.0 | 0.0 | 0.00 | 0.00 | 0.00 | 29 | 1023.9 | |
| 20260502151056 | 69 | 0.0 | 0.0 | 0.00 | 0.00 | 0.00 | 28 | 1024.0 | |
| 20260502140106 | 70 | 0.0 | 0.0 | 0.00 | 0.00 | 0.00 | 26 | 1024.6 | |
| 20260502130115 | 70 | 0.0 | 0.0 | 0.00 | 0.00 | 0.00 | 25 | 1025.2 | |
| 20260502123119 | 70 | 0.0 | 0.0 | 0.00 | 0.00 | 0.00 | 25 | 1025.5 | |
| 20260502122120 | 70 | 0.0 | 0.0 | 0.00 | 0.00 | 0.00 | 26 | 1025.6 | |
| 20260502121122 | 70 | 0.0 | 0.0 | 0.00 | 0.00 | 0.00 | 25 | 1025.8 | |
| 20260502120123 | 70 | 0.0 | 0.0 | 0.00 | 0.00 | 0.00 | 26 | 1025.8 | |
| 20260502115125 | 71 | 0.0 | 0.0 | 0.00 | 0.00 | 0.00 | 27 | 1025.9 | |
| 20260502114126 | 72 | 0.0 | 0.0 | 0.00 | 0.00 | 0.00 | 26 | 1026.0 | |
| 20260502113128 | 74 | 0.0 | 0.0 | 0.00 | 0.00 | 0.00 | 26 | 1026.0 | |
| 20260502112129 | 74 | 0.0 | 0.0 | 0.00 | 0.00 | 0.00 | 26 | 1026.1 | |
| 20260502111130 | 74 | 0.0 | 0.0 | 0.00 | 0.00 | 0.00 | 27 | 1026.2 | |
| 20260502110132 | 75 | 0.0 | 0.0 | 0.00 | 0.00 | 0.00 | 28 | 1026.3 | |
| 20260502105133 | 72 | 0.0 | 0.0 | 0.00 | 0.00 | 0.00 | 31 | 1026.5 | |
| 20260502104135 | 69 | 0.0 | 0.0 | 0.00 | 0.00 | 0.00 | 32 | 1026.4 | |
| 20260502103136 | 69 | 0.0 | 0.0 | 0.00 | 0.00 | 0.00 | 33 | 1026.6 | |
| 20260502102137 | 68 | 0.0 | 0.0 | 0.00 | 0.00 | 0.00 | 33 | 1026.7 | |
| 20260502101139 | 71 | 0.0 | 0.0 | 0.00 | 0.00 | 0.00 | 33 | 1026.8 | |
| 20260502100140 | 69 | 0.0 | 0.0 | 0.00 | 0.00 | 0.00 | 35 | 1026.9 | |
| 20260502091147 | 72 | 0.0 | 0.0 | 0.00 | 0.00 | 0.00 | 41 | 1027.4 | |
| 20260502090149 | 70 | 0.0 | 0.0 | 0.00 | 0.00 | 0.00 | 45 | 1027.4 | |
| 20260502071201 | 65 | 0.0 | 0.0 | 0.00 | 0.00 | 0.00 | 66 | 1027.8 | |
| 20260502070202 | 60 | 0.0 | 0.0 | 0.00 | 0.00 | 0.00 | 82 | 1027.9 | |
| 20260502065204 | 60 | 0.0 | 0.0 | 0.00 | 0.00 | 0.00 | 84 | 1027.8 | |
| 20260502064205 | 61 | 0.0 | 0.0 | 0.00 | 0.00 | 0.00 | 83 | 1027.8 | |
| 20260502063206 | 60 | 0.0 | 0.0 | 0.00 | 0.00 | 0.00 | 89 | 1027.9 | |
| 20260502062208 | 57 | 0.0 | 0.0 | 0.00 | 0.00 | 0.00 | 97 | 1027.9 | |
| 20260502061209 | 56 | 0.0 | 0.0 | 0.00 | 0.00 | 0.00 | 99 | 1027.9 | |
| 20260502060211 | 55 | 0.0 | 0.0 | 0.00 | 0.00 | 0.00 | 99 | 1027.8 | |
| 20260502055212 | 54 | 0.0 | 0.0 | 0.00 | 0.00 | 0.00 | 99 | 1027.8 | |
| 20260502054213 | 54 | 0.0 | 0.0 | 0.00 | 0.00 | 0.00 | 99 | 1027.7 | |
| 20260502053214 | 54 | 0.0 | 0.0 | 0.00 | 0.00 | 0.00 | 99 | 1027.7 | |
| 20260502052216 | 53 | 0.0 | 0.0 | 0.00 | 0.00 | 0.00 | 99 | 1027.8 | |
| 20260502051217 | 53 | 0.0 | 0.0 | 0.00 | 0.00 | 0.00 | 99 | 1027.7 | |
| 20260502050219 | 53 | 0.0 | 0.0 | 0.00 | 0.00 | 0.00 | 99 | 1027.8 | |
| 20260502045220 | 53 | 0.0 | 0.0 | 0.00 | 0.00 | 0.00 | 99 | 1027.7 | |
| 20260502044221 | 53 | 0.0 | 0.0 | 0.00 | 0.00 | 0.00 | 99 | 1027.6 | |
| 20260502043223 | 53 | 0.0 | 0.0 | 0.00 | 0.00 | 0.00 | 99 | 1027.6 | |
| 20260502042224 | 53 | 0.0 | 0.0 | 0.00 | 0.00 | 0.00 | 99 | 1027.6 | |
| 20260502041225 | 52 | 0.0 | 0.0 | 0.00 | 0.00 | 0.00 | 99 | 1027.6 | |
| 20260502040227 | 51 | 0.0 | 0.0 | 0.00 | 0.00 | 0.00 | 99 | 1027.5 | |
| 20260502035228 | 51 | 0.0 | 0.0 | 0.00 | 0.00 | 0.00 | 99 | 1027.5 | |
| 20260502034229 | 51 | 0.0 | 0.0 | 0.00 | 0.00 | 0.00 | 99 | 1027.5 | |
| 20260502033228 | 51 | 0.0 | 0.0 | 0.00 | 0.00 | 0.00 | 99 | 1027.6 | |
| 20260502032225 | 51 | 0.0 | 0.0 | 0.00 | 0.00 | 0.00 | 99 | 1027.6 | |
| 20260502031226 | 52 | 0.0 | 0.0 | 0.00 | 0.00 | 0.00 | 99 | 1027.6 | |
| 20260502030228 | 52 | 0.0 | 0.0 | 0.00 | 0.00 | 0.00 | 99 | 1027.6 | |
| 20260502025227 | 51 | 0.0 | 0.0 | 0.00 | 0.00 | 0.00 | 99 | 1027.7 | |
| 20260502024226 | 51 | 0.0 | 0.0 | 0.00 | 0.00 | 0.00 | 99 | 1027.7 | |
| 20260502023228 | 52 | 0.0 | 0.0 | 0.00 | 0.00 | 0.00 | 99 | 1027.7 | |
| 20260502022225 | 52 | 0.0 | 0.0 | 0.00 | 0.00 | 0.00 | 99 | 1027.7 | |
| 20260502021226 | 52 | 0.0 | 0.0 | 0.00 | 0.00 | 0.00 | 99 | 1027.7 | |
| 20260502020228 | 52 | 0.0 | 0.0 | 0.00 | 0.00 | 0.00 | 99 | 1027.8 | |
| 20260502015225 | 52 | 0.0 | 0.0 | 0.00 | 0.00 | 0.00 | 99 | 1027.8 | |
| 20260502014226 | 52 | 0.0 | 0.0 | 0.00 | 0.00 | 0.00 | 99 | 1027.9 | |
| 20260502013228 | 52 | 0.0 | 0.0 | 0.00 | 0.00 | 0.00 | 99 | 1027.9 | |
| 20260502012225 | 53 | 0.0 | 0.0 | 0.00 | 0.00 | 0.00 | 99 | 1028.0 | |
| 20260502011226 | 53 | 0.0 | 0.0 | 0.00 | 0.00 | 0.00 | 99 | 1028.1 | |
| 20260502010228 | 53 | 0.0 | 0.0 | 0.00 | 0.00 | 0.00 | 99 | 1028.1 | |
| 20260502005227 | 53 | 0.0 | 0.0 | 0.00 | 0.00 | 0.00 | 99 | 1028.2 | |
| 20260502004226 | 53 | 0.0 | 0.0 | 0.00 | 0.00 | 0.00 | 99 | 1028.3 | |
| 20260502003228 | 52 | 0.0 | 0.0 | 0.00 | 0.00 | 0.00 | 99 | 1028.4 | |
| 20260502002226 | 51 | 0.0 | 0.0 | 0.00 | 0.00 | 0.00 | 99 | 1028.5 | |
| 20260502001227 | 51 | 0.0 | 0.0 | 0.00 | 0.00 | 0.00 | 99 | 1028.5 | |
| 20260502000228 | 51 | 0.0 | 0.0 | 0.00 | 0.00 | 0.00 | 99 | 1028.5 | |
| 20260501235230 | 52 | 0.0 | 0.0 | 0.00 | 0.00 | 0.00 | 99 | 1028.5 | |
| 20260501234231 | 52 | 0.0 | 0.0 | 0.00 | 0.00 | 0.00 | 99 | 1028.6 | |
| 20260501233233 | 52 | 0.0 | 0.0 | 0.00 | 0.00 | 0.00 | 99 | 1028.6 | |
| 20260501232234 | 52 | 0.0 | 0.0 | 0.00 | 0.00 | 0.00 | 99 | 1028.6 | |
| 20260501231234 | 53 | 0.0 | 0.0 | 0.00 | 0.00 | 0.00 | 95 | 1028.7 | |
| 20260501230235 | 54 | 0.0 | 0.0 | 0.00 | 0.00 | 0.00 | 90 | 1028.7 | |
| 20260501225236 | 54 | 0.0 | 0.0 | 0.00 | 0.00 | 0.00 | 89 | 1028.8 | |
| 20260501224238 | 54 | 0.0 | 0.0 | 0.00 | 0.00 | 0.00 | 90 | 1028.8 | |
| 20260501223239 | 54 | 0.0 | 0.0 | 0.00 | 0.00 | 0.00 | 90 | 1028.8 | |
| 20260501222240 | 54 | 0.0 | 0.0 | 0.00 | 0.00 | 0.00 | 89 | 1028.8 | |
| 20260501221242 | 54 | 0.0 | 0.0 | 0.00 | 0.00 | 0.00 | 90 | 1028.9 | |
| 20260501220243 | 54 | 0.0 | 0.0 | 0.00 | 0.00 | 0.00 | 91 | 1029.0 | |
| 20260501215244 | 53 | 0.0 | 0.0 | 0.00 | 0.00 | 0.00 | 92 | 1028.9 | |
| 20260501214246 | 53 | 0.0 | 0.0 | 0.00 | 0.00 | 0.00 | 93 | 1028.9 | |
| 20260501213247 | 53 | 0.0 | 0.0 | 0.00 | 0.00 | 0.00 | 92 | 1029.0 | |
| 20260501212248 | 53 | 0.0 | 0.0 | 0.00 | 0.00 | 0.00 | 91 | 1029.0 | |
| 20260501211250 | 53 | 0.0 | 0.0 | 0.00 | 0.00 | 0.00 | 91 | 1028.9 | |
| 20260501210251 | 53 | 0.0 | 0.0 | 0.00 | 0.00 | 0.00 | 91 | 1029.0 | |
| 20260501205252 | 53 | 0.0 | 0.0 | 0.00 | 0.00 | 0.00 | 91 | 1029.0 | |
| 20260501204252 | 53 | 0.0 | 0.0 | 0.00 | 0.00 | 0.00 | 89 | 1029.0 | |
| 20260501203254 | 54 | 0.0 | 0.0 | 0.00 | 0.00 | 0.00 | 86 | 1029.0 | |
| 20260501202255 | 54 | 0.0 | 0.0 | 0.00 | 0.00 | 0.00 | 85 | 1029.0 | |
| 20260501201256 | 54 | 0.0 | 0.0 | 0.00 | 0.00 | 0.00 | 85 | 1029.0 | |
| 20260501200258 | 54 | 0.0 | 0.0 | 0.00 | 0.00 | 0.00 | 85 | 1029.0 |